createdAt,value
2022-08-18T00:01:32.081Z,100937.38
2022-08-18T00:04:03.542Z,100932.56
2022-08-18T00:06:32.847Z,100936.53
2022-08-18T00:09:04.385Z,100940.53
2022-08-18T00:11:41.082Z,100943.84
2022-08-18T00:14:19.689Z,100944.47
2022-08-18T00:16:53.914Z,100949.09
2022-08-18T00:19:46.716Z,100958.16
2022-08-18T00:22:15.935Z,100950.09
2022-08-18T00:24:48.162Z,100946.91
2022-08-18T00:27:23.411Z,100947.63
2022-08-18T00:29:54.441Z,100944.06
2022-08-18T00:32:26.667Z,100943.41
2022-08-18T00:34:56.684Z,100940.22
2022-08-18T00:37:26.149Z,100935.13
2022-08-18T00:39:55.480Z,100940.88
2022-08-18T00:42:27.461Z,100940.53
2022-08-18T00:45:00.869Z,100937.00
2022-08-18T00:47:33.199Z,100938.19
2022-08-18T00:50:16.239Z,100934.06
2022-08-18T00:53:07.268Z,100939.28
2022-08-18T00:55:36.068Z,100943.31
2022-08-18T00:58:08.867Z,100940.34
2022-08-18T01:00:38.040Z,100937.72
2022-08-18T01:03:12.364Z,100945.59
2022-08-18T01:05:47.253Z,100940.88
2022-08-18T01:08:21.375Z,100948.66
2022-08-18T01:11:01.898Z,100943.91
2022-08-18T01:13:33.124Z,100951.03
2022-08-18T01:16:24.297Z,100946.44
2022-08-18T01:19:10.389Z,100944.91
2022-08-18T01:21:53.945Z,100944.25
2022-08-18T01:24:48.474Z,100943.25
2022-08-18T01:27:18.965Z,100939.88
2022-08-18T01:29:48.151Z,100943.94
2022-08-18T01:32:19.772Z,100950.03
2022-08-18T01:34:49.225Z,100934.06
2022-08-18T01:37:19.546Z,100936.31
2022-08-18T01:41:17.404Z,100936.47
2022-08-18T01:42:39.630Z,100937.16
2022-08-18T01:45:09.655Z,100937.84
2022-08-18T01:47:48.474Z,100939.38
2022-08-18T01:50:18.427Z,100947.16
2022-08-18T01:52:47.523Z,100947.50
2022-08-18T01:55:18.396Z,100943.06
2022-08-18T01:57:47.688Z,100937.13
2022-08-18T02:00:18.883Z,100937.47
2022-08-18T02:02:57.932Z,100942.56
2022-08-18T02:05:35.035Z,100931.53
2022-08-18T02:08:05.034Z,100942.56
2022-08-18T02:10:35.506Z,100936.94
2022-08-18T02:13:04.085Z,100937.16
2022-08-18T02:15:35.510Z,100942.91
2022-08-18T02:18:04.092Z,100944.09
2022-08-18T02:20:32.674Z,100943.41
2022-08-18T02:23:03.094Z,100947.00
2022-08-18T02:25:31.803Z,100943.59
2022-08-18T02:28:01.770Z,100948.88
2022-08-18T02:30:30.227Z,100942.72
2022-08-18T02:32:59.390Z,100940.88
2022-08-18T02:35:27.893Z,100938.81
2022-08-18T02:37:56.399Z,100948.66
2022-08-18T02:40:25.089Z,100945.91
2022-08-18T02:42:54.494Z,100940.81
2022-08-18T02:45:24.651Z,100942.38
2022-08-18T02:47:58.317Z,100939.00
2022-08-18T02:50:27.042Z,100946.81
2022-08-18T02:52:55.541Z,100945.63
2022-08-18T02:55:26.868Z,100946.16
2022-08-18T02:57:55.534Z,100952.44
2022-08-18T03:00:25.717Z,100947.69
2022-08-18T03:02:54.758Z,100940.72
2022-08-18T03:05:23.561Z,100948.53
2022-08-18T03:07:52.493Z,100949.38
2022-08-18T03:10:33.436Z,100946.31
2022-08-18T03:13:03.851Z,100944.28
2022-08-18T03:15:34.016Z,100952.44
2022-08-18T03:18:02.739Z,100952.06
2022-08-18T03:20:31.741Z,100952.75
2022-08-18T03:23:05.493Z,100954.28
2022-08-18T03:25:34.823Z,100956.47
2022-08-18T03:28:04.503Z,100961.59
2022-08-18T03:30:34.625Z,100958.03
2022-08-18T03:33:03.208Z,100962.28
2022-08-18T03:35:31.918Z,100964.00
2022-08-18T03:38:01.059Z,100962.63
2022-08-18T03:40:30.065Z,100962.47
2022-08-18T03:42:58.681Z,100961.59
2022-08-18T03:45:32.165Z,100966.88
2022-08-18T03:48:02.744Z,100964.81
2022-08-18T03:50:32.577Z,100961.09
2022-08-18T03:53:01.357Z,100967.03
2022-08-18T03:55:30.035Z,100962.81
2022-08-18T04:00:49.115Z,100965.31
2022-08-18T04:03:19.137Z,100969.88
2022-08-18T04:05:47.936Z,100968.13
2022-08-18T04:08:16.553Z,100969.59
2022-08-18T04:10:45.976Z,100976.53
2022-08-18T04:13:14.557Z,100989.28
2022-08-18T04:15:43.243Z,100981.22
2022-08-18T04:18:12.353Z,100971.16
2022-08-18T04:20:56.281Z,100982.34
2022-08-18T04:23:28.926Z,100982.78
2022-08-18T04:26:01.701Z,100980.81
2022-08-18T04:28:31.142Z,100987.25
2022-08-18T04:31:00.389Z,100988.50
2022-08-18T04:33:30.008Z,100988.31
2022-08-18T04:36:02.952Z,100991.63
2022-08-18T04:38:31.530Z,100987.13
2022-08-18T04:41:00.219Z,100990.00
2022-08-18T04:43:29.480Z,100991.16
2022-08-18T04:46:02.099Z,100997.75
2022-08-18T04:48:34.445Z,100993.69
2022-08-18T04:51:10.919Z,100994.81
2022-08-18T04:53:50.949Z,100990.59
2022-08-18T04:56:23.364Z,100988.81
2022-08-18T04:58:52.625Z,101001.41
2022-08-18T05:01:23.224Z,100995.25
2022-08-18T05:03:51.998Z,100999.19
2022-08-18T05:06:25.428Z,100997.84
2022-08-18T05:08:55.088Z,101000.16
2022-08-18T05:11:24.925Z,101001.19
2022-08-18T05:13:53.618Z,101000.63
2022-08-18T05:16:27.424Z,100989.44
2022-08-18T05:18:57.273Z,100997.25
2022-08-18T05:21:27.750Z,100996.91
2022-08-18T05:23:56.402Z,100995.38
2022-08-18T05:26:25.070Z,101002.19
2022-08-18T05:28:53.824Z,101003.75
2022-08-18T05:31:41.185Z,101001.53
2022-08-18T05:34:10.143Z,101004.91
2022-08-18T05:36:59.532Z,101005.41
2022-08-18T05:39:32.037Z,101009.31
2022-08-18T05:42:07.381Z,101007.44
2022-08-18T05:44:40.581Z,101013.44
2022-08-18T05:47:14.739Z,101018.47
2022-08-18T05:49:46.072Z,101018.69
2022-08-18T05:52:23.899Z,101023.94
2022-08-18T05:55:13.358Z,101026.03
2022-08-18T05:57:46.760Z,101027.78
2022-08-18T06:00:16.222Z,101030.56
2022-08-18T06:02:50.504Z,101027.66
2022-08-18T06:05:25.321Z,101038.00
2022-08-18T06:07:58.635Z,101032.59
2022-08-18T06:10:27.807Z,101031.72
2022-08-18T06:12:59.362Z,101038.50
2022-08-18T06:15:39.975Z,101032.56
2022-08-18T06:18:35.035Z,101030.88
2022-08-18T06:21:18.581Z,101028.09
2022-08-18T06:23:57.621Z,101034.63
2022-08-18T06:26:35.199Z,101034.44
2022-08-18T06:29:21.964Z,101041.38
2022-08-18T06:32:01.924Z,101038.78
2022-08-18T06:34:43.288Z,101042.09
2022-08-18T06:37:18.739Z,101040.38
2022-08-18T06:39:50.999Z,101039.91
2022-08-18T06:42:21.676Z,101041.78
2022-08-18T06:44:51.903Z,101035.63
2022-08-18T06:47:30.649Z,101043.13
2022-08-18T06:50:05.106Z,101031.56
2022-08-18T06:52:36.248Z,101033.81
2022-08-18T06:55:09.742Z,101030.53
2022-08-18T06:57:41.165Z,101032.09
2022-08-18T07:00:21.655Z,101041.19
2022-08-18T07:02:54.224Z,101036.03
2022-08-18T07:05:26.096Z,101041.56
2022-08-18T07:08:18.358Z,101042.00
2022-08-18T07:10:51.347Z,101043.25
2022-08-18T07:13:25.680Z,101041.56
2022-08-18T07:15:56.176Z,101041.06
2022-08-18T07:18:26.238Z,101047.00
2022-08-18T07:20:57.255Z,101045.22
2022-08-18T07:23:29.390Z,101048.22
2022-08-18T07:26:10.580Z,101049.66
2022-08-18T07:28:42.377Z,101052.75
2022-08-18T07:31:21.421Z,101057.16
2022-08-18T07:33:57.125Z,101063.09
2022-08-18T07:36:30.200Z,101064.09
2022-08-18T07:39:05.084Z,101069.22
2022-08-18T07:41:41.367Z,101072.53
2022-08-18T07:44:18.873Z,101073.34
2022-08-18T07:46:58.861Z,101064.94
2022-08-18T07:49:31.400Z,101066.22
2022-08-18T07:52:06.506Z,101074.19
2022-08-18T07:54:58.300Z,101066.00
2022-08-18T07:57:52.892Z,101072.88
2022-08-18T08:00:54.909Z,101073.31
2022-08-18T08:03:33.507Z,101078.28
2022-08-18T08:06:10.215Z,101072.00
2022-08-18T08:08:44.586Z,101069.75
2022-08-18T08:11:22.395Z,101073.19
2022-08-18T08:14:04.815Z,101063.53
2022-08-18T08:16:47.406Z,101074.00
2022-08-18T08:19:59.530Z,101072.78
2022-08-18T08:22:32.217Z,101069.22
2022-08-18T08:25:22.369Z,101071.25
2022-08-18T08:28:08.556Z,101074.28
2022-08-18T08:30:46.843Z,101077.06
2022-08-18T08:33:26.163Z,101063.63
2022-08-18T08:35:59.658Z,101061.09
2022-08-18T08:38:46.407Z,101069.38
2022-08-18T08:41:20.882Z,101069.13
2022-08-18T08:43:54.782Z,101070.94
2022-08-18T08:46:30.198Z,101068.03
2022-08-18T08:49:06.540Z,101070.28
2022-08-18T08:51:39.793Z,101064.41
2022-08-18T08:54:16.463Z,101061.16
2022-08-18T08:56:48.323Z,101064.88
2022-08-18T08:59:22.089Z,101068.00
2022-08-18T09:02:06.043Z,101064.72
2022-08-18T09:04:58.149Z,101077.75
2022-08-18T09:07:55.213Z,101077.56
2022-08-18T09:10:48.209Z,101072.03
2022-08-18T09:13:47.671Z,101071.59
2022-08-18T09:16:27.956Z,101079.88
2022-08-18T09:19:13.950Z,101076.69
2022-08-18T09:21:48.411Z,101067.78
2022-08-18T09:24:28.131Z,101059.69
2022-08-18T09:27:16.709Z,101067.53
2022-08-18T09:29:54.365Z,101074.72
2022-08-18T09:33:18.598Z,101068.69
2022-08-18T09:36:25.952Z,101061.47
2022-08-18T09:39:18.376Z,101063.13
2022-08-18T09:41:52.800Z,101056.91
2022-08-18T09:45:01.081Z,101053.41
2022-08-18T09:48:08.754Z,101050.56
2022-08-18T09:50:54.587Z,101052.00
2022-08-18T09:54:09.460Z,101055.50
2022-08-18T09:56:58.603Z,101053.44
2022-08-18T10:00:08.080Z,101051.81
2022-08-18T10:03:10.527Z,101055.84
2022-08-18T10:05:39.854Z,101049.31
2022-08-18T10:08:45.322Z,101054.66
2022-08-18T10:11:37.231Z,101055.59
2022-08-18T10:14:27.343Z,101046.56
2022-08-18T10:17:23.703Z,101051.94
2022-08-18T10:20:05.261Z,101048.00
2022-08-18T10:22:42.020Z,101048.75
2022-08-18T10:25:22.717Z,101055.09
2022-08-18T10:27:57.001Z,101050.00
2022-08-18T10:34:18.989Z,101051.63
2022-08-18T10:36:52.321Z,101052.78
2022-08-18T10:39:24.217Z,101051.84
2022-08-18T10:42:00.006Z,101036.19
2022-08-18T10:44:33.662Z,101043.56
2022-08-18T10:47:11.966Z,101049.81
2022-08-18T10:49:46.625Z,101053.16
2022-08-18T10:53:24.061Z,101050.00
2022-08-18T10:55:53.928Z,101055.72
2022-08-18T10:58:50.916Z,101049.94
2022-08-18T11:01:45.569Z,101045.38
2022-08-18T11:04:33.838Z,101049.31
2022-08-18T11:07:11.337Z,101044.66
2022-08-18T11:09:42.144Z,101046.66
2022-08-18T11:12:16.026Z,101047.69
2022-08-18T11:18:05.776Z,101036.31
2022-08-18T11:20:43.057Z,101036.03
2022-08-18T11:23:17.721Z,101033.72
2022-08-18T11:25:48.412Z,101036.41
2022-08-18T11:28:21.396Z,101032.78
2022-08-18T11:31:00.875Z,101037.75
2022-08-18T11:33:31.079Z,101042.22
2022-08-18T11:36:06.997Z,101036.25
2022-08-18T11:38:39.278Z,101045.44
2022-08-18T11:41:19.722Z,101043.63
2022-08-18T11:43:50.690Z,101039.00
2022-08-18T11:46:30.473Z,101038.34
2022-08-18T11:52:03.170Z,101038.56
2022-08-18T11:54:50.140Z,101044.13
2022-08-18T11:57:31.775Z,101039.94
2022-08-18T12:00:01.165Z,101038.19
2022-08-18T12:02:29.845Z,101036.84
2022-08-18T12:05:10.598Z,101038.13
2022-08-18T12:10:32.860Z,101030.22
2022-08-18T12:13:01.541Z,101028.09
2022-08-18T12:15:43.632Z,101026.00
2022-08-18T12:18:18.834Z,101022.66
2022-08-18T12:20:59.457Z,101023.38
2022-08-18T12:23:44.532Z,101024.94
2022-08-18T12:26:37.989Z,101019.56
2022-08-18T12:29:11.116Z,101021.47
2022-08-18T12:31:42.478Z,101019.63
2022-08-18T12:34:17.995Z,101016.97
2022-08-18T12:36:57.480Z,101014.22
2022-08-18T12:39:26.337Z,101017.41
2022-08-18T12:41:54.877Z,101012.78
2022-08-18T12:44:23.639Z,101019.84
2022-08-18T12:46:56.390Z,101021.38
2022-08-18T12:49:26.544Z,101016.34
2022-08-18T12:51:57.131Z,101016.16
2022-08-18T12:54:27.104Z,101008.75
2022-08-18T12:56:57.839Z,101014.28
2022-08-18T12:59:26.897Z,101019.72
2022-08-18T13:02:01.776Z,101008.03
2022-08-18T13:07:20.698Z,101010.16
2022-08-18T13:09:53.053Z,100998.94
2022-08-18T13:12:23.918Z,100999.84
2022-08-18T13:14:55.399Z,101009.41
2022-08-18T13:17:32.098Z,101002.50
2022-08-18T13:20:06.242Z,101003.41
2022-08-18T13:22:40.622Z,101000.22
2022-08-18T13:25:12.234Z,101004.53
2022-08-18T13:27:43.513Z,101004.03
2022-08-18T13:30:30.426Z,101003.94
2022-08-18T13:33:02.558Z,100994.91
2022-08-18T13:35:44.374Z,100990.09
2022-08-18T13:38:20.815Z,100993.19
2022-08-18T13:40:57.762Z,101003.94
2022-08-18T13:43:34.244Z,100999.75
2022-08-18T13:46:04.150Z,101002.69
2022-08-18T13:48:33.010Z,101004.78
2022-08-18T13:51:04.532Z,100995.13
2022-08-18T13:53:40.524Z,100993.44
2022-08-18T13:56:20.930Z,100997.00
2022-08-18T13:58:59.985Z,100996.84
2022-08-18T14:01:52.534Z,101002.69
2022-08-18T14:04:20.317Z,101007.41
2022-08-18T14:06:56.478Z,101002.38
2022-08-18T14:09:37.061Z,101006.13
2022-08-18T14:12:15.971Z,100994.38
2022-08-18T14:14:53.334Z,100994.47
2022-08-18T14:17:23.032Z,100994.13
2022-08-18T14:20:15.512Z,101000.09
2022-08-18T14:23:09.990Z,100995.50
2022-08-18T14:25:57.491Z,100996.41
2022-08-18T14:28:29.297Z,101004.34
2022-08-18T14:30:58.706Z,101010.09
2022-08-18T14:33:50.029Z,100992.41
2022-08-18T14:36:19.246Z,101005.09
2022-08-18T14:38:51.454Z,100999.34
2022-08-18T14:41:25.594Z,100998.66
2022-08-18T14:44:12.503Z,101004.84
2022-08-18T14:46:52.438Z,101003.94
2022-08-18T14:49:29.146Z,101008.09
2022-08-18T14:51:59.724Z,101004.22
2022-08-18T14:54:30.157Z,100999.59
2022-08-18T14:57:02.610Z,101002.28
2022-08-18T14:59:34.546Z,100999.34
2022-08-18T15:02:13.407Z,100996.25
2022-08-18T15:04:55.811Z,100997.91
2022-08-18T15:07:25.217Z,100998.66
2022-08-18T15:10:15.560Z,100990.09
2022-08-18T15:12:45.610Z,100997.38
2022-08-18T15:15:15.893Z,100991.38
2022-08-18T15:17:49.548Z,100994.81
2022-08-18T15:20:23.930Z,100992.13
2022-08-18T15:23:25.065Z,101002.38
2022-08-18T15:25:59.006Z,101000.84
2022-08-18T15:28:29.498Z,100996.91
2022-08-18T15:33:50.210Z,100996.25
2022-08-18T15:36:29.177Z,100996.28
2022-08-18T15:38:59.024Z,100996.00
2022-08-18T15:41:34.713Z,101001.31
2022-08-18T15:44:07.144Z,101000.13
2022-08-18T15:46:39.528Z,100999.56
2022-08-18T15:49:13.780Z,100994.91
2022-08-18T15:51:45.231Z,100997.50
2022-08-18T15:54:14.306Z,101002.06
2022-08-18T15:56:43.620Z,100991.06
2022-08-18T15:59:13.672Z,100995.59
2022-08-18T16:01:46.287Z,100990.72
2022-08-18T16:04:18.605Z,100997.13
2022-08-18T16:06:51.278Z,100987.06
2022-08-18T16:09:21.261Z,100990.53
2022-08-18T16:11:50.205Z,100987.84
2022-08-18T16:14:20.367Z,100988.31
2022-08-18T16:16:49.168Z,100989.38
2022-08-18T16:19:17.743Z,100982.88
2022-08-18T16:21:46.747Z,100981.97
2022-08-18T16:24:18.239Z,100993.13
2022-08-18T16:26:47.265Z,100986.69
2022-08-18T16:29:15.807Z,100985.75
2022-08-18T16:31:45.917Z,100982.28
2022-08-18T16:34:14.919Z,100984.66
2022-08-18T16:36:43.503Z,100985.03
2022-08-18T16:39:11.964Z,100989.94
2022-08-18T16:41:41.545Z,100992.22
2022-08-18T16:44:10.056Z,100994.38
2022-08-18T16:46:38.939Z,100994.97
2022-08-18T16:49:09.155Z,100990.50
2022-08-18T16:51:38.468Z,100995.69
2022-08-18T16:54:07.028Z,100995.13
2022-08-18T16:56:36.166Z,100993.97
2022-08-18T16:59:22.493Z,100991.69
2022-08-18T17:02:08.696Z,101001.69
2022-08-18T17:04:39.043Z,100996.88
2022-08-18T17:07:08.901Z,101003.31
2022-08-18T17:09:37.818Z,100997.59
2022-08-18T17:12:06.796Z,100994.50
2022-08-18T17:14:37.023Z,100995.38
2022-08-18T17:17:07.878Z,100996.06
2022-08-18T17:19:38.431Z,100995.44
2022-08-18T17:22:08.326Z,101001.31
2022-08-18T17:24:42.617Z,100997.88
2022-08-18T17:27:27.086Z,101004.88
2022-08-18T17:30:04.130Z,101010.78
2022-08-18T17:32:41.679Z,101008.66
2022-08-18T17:35:15.135Z,101013.09
2022-08-18T17:37:49.440Z,101007.25
2022-08-18T17:40:22.449Z,101009.88
2022-08-18T17:42:51.934Z,101013.09
2022-08-18T17:45:22.526Z,101009.94
2022-08-18T17:47:57.576Z,101007.56
2022-08-18T17:50:48.975Z,101001.44
2022-08-18T17:53:18.575Z,101003.25
2022-08-18T17:55:52.195Z,101001.28
2022-08-18T17:58:28.055Z,101011.03
2022-08-18T18:00:57.543Z,101008.84
2022-08-18T18:03:28.514Z,101015.53
2022-08-18T18:08:57.451Z,101013.94
2022-08-18T18:11:31.212Z,101012.28
2022-08-18T18:14:01.612Z,101020.75
2022-08-18T18:16:35.528Z,101027.75
2022-08-18T18:19:08.542Z,101023.38
2022-08-18T18:22:00.484Z,101016.53
2022-08-18T18:24:33.443Z,101021.59
2022-08-18T18:27:02.291Z,101017.91
2022-08-18T18:29:38.138Z,101018.19
2022-08-18T18:32:23.739Z,101013.81
2022-08-18T18:35:15.397Z,101017.66
2022-08-18T18:37:52.848Z,101020.84
2022-08-18T18:40:34.881Z,101014.63
2022-08-18T18:43:25.097Z,101010.88
2022-08-18T18:46:32.331Z,101018.47
2022-08-18T18:49:14.862Z,101023.59
2022-08-18T18:51:54.871Z,101021.09
2022-08-18T18:54:40.733Z,101011.06
2022-08-18T18:57:13.593Z,101016.19
2022-08-18T19:02:41.591Z,101026.91
2022-08-18T19:05:20.103Z,101023.88
2022-08-18T19:08:00.378Z,101022.81
2022-08-18T19:10:38.419Z,101023.31
2022-08-18T19:13:25.115Z,101032.22
2022-08-18T19:16:23.877Z,101021.31
2022-08-18T19:19:38.143Z,101028.94
2022-08-18T19:22:03.799Z,101035.81
2022-08-18T19:24:42.018Z,101035.88
2022-08-18T19:27:23.518Z,101040.53
2022-08-18T19:29:55.857Z,101038.22
2022-08-18T19:32:34.102Z,101042.25
2022-08-18T19:35:04.417Z,101044.13
2022-08-18T19:37:54.161Z,101041.56
2022-08-18T19:40:28.781Z,101044.38
2022-08-18T19:43:03.157Z,101040.97
2022-08-18T19:45:46.151Z,101039.06
2022-08-18T19:48:22.603Z,101043.94
2022-08-18T19:50:55.483Z,101031.66
2022-08-18T19:53:59.660Z,101045.59
2022-08-18T19:56:43.862Z,101045.63
2022-08-18T19:59:35.023Z,101045.44
2022-08-18T20:02:21.818Z,101047.31
2022-08-18T20:05:09.578Z,101052.59
2022-08-18T20:08:27.439Z,101048.63
2022-08-18T20:11:16.478Z,101053.03
2022-08-18T20:13:47.039Z,101046.06
2022-08-18T20:16:35.557Z,101057.06
2022-08-18T20:19:41.358Z,101052.84
2022-08-18T20:22:16.149Z,101057.28
2022-08-18T20:24:51.307Z,101056.41
2022-08-18T20:27:35.909Z,101058.34
2022-08-18T20:30:33.346Z,101063.38
2022-08-18T20:33:16.758Z,101065.50
2022-08-18T20:35:53.260Z,101065.91
2022-08-18T20:38:35.332Z,101070.13
2022-08-18T20:41:52.105Z,101072.69
2022-08-18T20:44:41.678Z,101082.56
2022-08-18T20:47:49.879Z,101084.63
2022-08-18T20:50:44.518Z,101086.03
2022-08-18T20:53:35.082Z,101084.13
2022-08-18T20:56:32.245Z,101085.81
2022-08-18T20:59:08.938Z,101084.84
2022-08-18T21:01:39.201Z,101083.69
2022-08-18T21:04:08.063Z,101089.34
2022-08-18T21:06:42.285Z,101096.50
2022-08-18T21:09:11.746Z,101093.63
2022-08-18T21:11:44.385Z,101092.56
2022-08-18T21:14:15.645Z,101090.34
2022-08-18T21:16:47.352Z,101084.28
2022-08-18T21:19:23.708Z,101090.78
2022-08-18T21:21:56.983Z,101089.22
2022-08-18T21:24:32.614Z,101087.78
2022-08-18T21:27:05.388Z,101084.75
2022-08-18T21:29:47.554Z,101095.22
2022-08-18T21:32:20.724Z,101095.22
2022-08-18T21:34:50.001Z,101091.09
2022-08-18T21:37:21.485Z,101101.84
2022-08-18T21:39:56.271Z,101097.72
2022-08-18T21:42:28.722Z,101095.31
2022-08-18T21:45:01.137Z,101097.84
2022-08-18T21:47:32.020Z,101101.25
2022-08-18T21:50:01.741Z,101101.78
2022-08-18T21:52:32.926Z,101103.63
2022-08-18T21:55:06.198Z,101107.84
2022-08-18T21:58:00.363Z,101108.53
2022-08-18T22:00:31.151Z,101106.63
2022-08-18T22:03:23.029Z,101107.28
2022-08-18T22:06:00.963Z,101102.13
2022-08-18T22:08:33.308Z,101097.44
2022-08-18T22:12:00.511Z,101098.47
2022-08-18T22:14:36.063Z,101100.59
2022-08-18T22:17:32.660Z,101100.59
2022-08-18T22:20:40.102Z,101097.69
2022-08-18T22:23:39.587Z,101097.97
2022-08-18T22:26:15.277Z,101090.69
2022-08-18T22:29:03.247Z,101094.56
2022-08-18T22:31:33.868Z,101096.47
2022-08-18T22:34:07.372Z,101106.13
2022-08-18T22:36:39.558Z,101096.31
2022-08-18T22:39:10.689Z,101100.44
2022-08-18T22:41:41.943Z,101101.66
2022-08-18T22:44:10.604Z,101100.94
2022-08-18T22:46:39.115Z,101096.13
2022-08-18T22:49:07.852Z,101104.88
2022-08-18T22:51:38.514Z,101097.03
2022-08-18T22:54:11.030Z,101094.31
2022-08-18T22:56:53.916Z,101089.78
2022-08-18T22:59:26.909Z,101099.13
2022-08-18T23:01:56.154Z,101097.41
2022-08-18T23:04:25.636Z,101091.56
2022-08-18T23:06:54.896Z,101103.53
2022-08-18T23:09:25.354Z,101097.41
2022-08-18T23:11:59.090Z,101097.22
2022-08-18T23:14:28.419Z,101092.88
2022-08-18T23:16:56.848Z,101098.22
2022-08-18T23:19:26.556Z,101085.91
2022-08-18T23:21:55.402Z,101090.41
2022-08-18T23:24:25.044Z,101097.47
2022-08-18T23:26:55.090Z,101089.16
2022-08-18T23:29:23.707Z,101083.44
2022-08-18T23:31:52.726Z,101092.47
2022-08-18T23:34:24.514Z,101082.88
2022-08-18T23:36:56.746Z,101087.03
2022-08-18T23:39:25.623Z,101084.97
2022-08-18T23:41:55.890Z,101080.66
2022-08-18T23:44:27.246Z,101086.88
2022-08-18T23:46:56.859Z,101084.81
2022-08-18T23:49:26.528Z,101092.16
2022-08-18T23:51:56.375Z,101084.72
2022-08-18T23:54:27.213Z,101085.66
2022-08-18T23:56:57.474Z,101089.34
2022-08-18T23:59:28.135Z,101090.38
